Time;durP1;ratioP1;P1;durP2;ratioP2;P2;SDS_P1;SDS_P2;PMS_P1;PMS_P2;Temp;Humidity;BMP_temperature;BMP_pressure;BME280_temperature;BME280_humidity;BME280_pressure;Samples;Min_cycle;Max_cycle;Signal;HPM_P1;HPM_P2
2023/12/16 00:01:54;;;;;;;14.23;8.80;;;;;;;;;;5056419;28;20181;-80
2023/12/16 00:04:20;;;;;;;17.40;6.53;;;;;;;;;;5056071;28;20188;-80
2023/12/16 00:06:46;;;;;;;11.30;7.70;;;;;;;;;;5055243;28;20407;-81
2023/12/16 00:09:12;;;;;;;13.73;6.80;;;;;;;;;;5054915;28;20409;-81
2023/12/16 00:11:38;;;;;;;13.15;8.43;;;;;;;;;;5054928;28;20408;-81
2023/12/16 00:14:04;;;;;;;15.82;7.35;;;;;;;;;;5055299;28;20219;-81
2023/12/16 00:16:30;;;;;;;13.25;7.80;;;;;;;;;;5052986;28;20669;-81
2023/12/16 00:18:56;;;;;;;16.53;7.07;;;;;;;;;;5055795;28;20177;-80
2023/12/16 00:21:22;;;;;;;13.88;6.97;;;;;;;;;;5053983;28;20415;-80
2023/12/16 00:23:48;;;;;;;23.87;7.60;;;;;;;;;;5053183;28;20184;-80
2023/12/16 00:26:14;;;;;;;11.20;6.40;;;;;;;;;;5055514;28;20431;-78
2023/12/16 00:28:40;;;;;;;14.95;7.32;;;;;;;;;;5055439;28;20174;-80
2023/12/16 00:31:06;;;;;;;17.47;7.50;;;;;;;;;;5056180;28;20192;-80
2023/12/16 00:33:32;;;;;;;14.70;9.00;;;;;;;;;;5058872;28;20412;-80
2023/12/16 00:35:58;;;;;;;17.50;6.73;;;;;;;;;;5058042;28;20468;-80
2023/12/16 00:38:25;;;;;;;12.57;6.18;;;;;;;;;;5057776;28;20416;-79
2023/12/16 00:40:51;;;;;;;15.95;6.15;;;;;;;;;;5058686;28;20175;-79
2023/12/16 00:43:17;;;;;;;10.97;6.60;;;;;;;;;;5058477;28;20180;-79
2023/12/16 00:45:43;;;;;;;10.15;5.40;;;;;;;;;;5058486;28;20415;-79
2023/12/16 00:48:09;;;;;;;14.17;7.13;;;;;;;;;;5058532;28;20180;-79
2023/12/16 00:50:38;;;;;;;15.95;7.10;;;;;;;;;;5056797;28;20423;-79
2023/12/16 00:53:04;;;;;;;12.48;7.35;;;;;;;;;;5057347;28;20244;-79
2023/12/16 00:55:30;;;;;;;16.38;6.88;;;;;;;;;;5058047;28;20213;-79
2023/12/16 00:57:56;;;;;;;13.13;7.67;;;;;;;;;;5058281;28;20177;-79
2023/12/16 01:00:22;;;;;;;12.50;6.43;;;;;;;;;;5057678;28;20408;-80
2023/12/16 01:02:48;;;;;;;11.57;6.23;;;;;;;;;;5058409;28;20416;-80
2023/12/16 01:05:15;;;;;;;14.53;6.27;;;;;;;;;;5058294;28;20415;-80
2023/12/16 01:07:41;;;;;;;10.30;6.43;;;;;;;;;;5056993;28;20495;-80
2023/12/16 01:10:07;;;;;;;28.17;9.30;;;;;;;;;;5058242;28;20208;-80
2023/12/16 01:12:33;;;;;;;15.07;7.22;;;;;;;;;;5057831;28;20427;-80
2023/12/16 01:14:59;;;;;;;16.40;6.50;;;;;;;;;;5058083;28;20204;-80
2023/12/16 01:17:25;;;;;;;13.20;6.00;;;;;;;;;;5058121;28;20394;-80
2023/12/16 01:19:51;;;;;;;20.48;6.82;;;;;;;;;;5058170;28;20388;-81
2023/12/16 01:22:16;;;;;;;16.80;7.23;;;;;;;;;;5058067;28;20181;-80
2023/12/16 01:24:43;;;;;;;16.37;6.50;;;;;;;;;;5057288;28;20417;-81
2023/12/16 01:27:09;;;;;;;13.77;6.50;;;;;;;;;;5058017;28;20396;-80
2023/12/16 01:29:35;;;;;;;15.77;6.40;;;;;;;;;;5057735;28;20176;-81
2023/12/16 01:32:01;;;;;;;14.33;5.77;;;;;;;;;;5057560;28;20435;-80
2023/12/16 01:34:26;;;;;;;12.83;6.13;;;;;;;;;;5058086;28;20412;-81
2023/12/16 01:36:52;;;;;;;14.03;6.10;;;;;;;;;;5057900;28;20888;-80
2023/12/16 01:39:18;;;;;;;11.73;7.00;;;;;;;;;;5057713;28;20467;-80
2023/12/16 01:41:44;;;;;;;14.37;6.40;;;;;;;;;;5057246;28;20401;-80
2023/12/16 01:44:10;;;;;;;10.20;5.57;;;;;;;;;;5058013;28;20491;-80
2023/12/16 01:46:37;;;;;;;15.27;6.50;;;;;;;;;;5057502;28;20402;-81
2023/12/16 01:49:03;;;;;;;19.10;6.38;;;;;;;;;;5056166;28;20550;-80
2023/12/16 01:51:30;;;;;;;14.95;5.80;;;;;;;;;;5057467;28;20209;-81
2023/12/16 01:53:56;;;;;;;12.25;5.93;;;;;;;;;;5057577;28;20294;-80
2023/12/16 01:56:22;;;;;;;23.88;6.55;;;;;;;;;;5057328;28;20257;-80
2023/12/16 01:58:49;;;;;;;13.75;6.28;;;;;;;;;;5057431;28;20516;-81
2023/12/16 02:01:15;;;;;;;15.73;6.45;;;;;;;;;;5057047;28;20324;-80
2023/12/16 02:03:42;;;;;;;13.02;6.43;;;;;;;;;;5057108;28;20185;-80
2023/12/16 02:06:08;;;;;;;12.65;6.03;;;;;;;;;;5057694;28;20519;-80
2023/12/16 02:08:34;;;;;;;11.60;6.47;;;;;;;;;;5057250;28;20219;-80
2023/12/16 02:11:00;;;;;;;16.20;6.07;;;;;;;;;;5057512;28;20736;-80
2023/12/16 02:13:26;;;;;;;17.23;6.35;;;;;;;;;;5056439;28;20414;-80
2023/12/16 02:15:52;;;;;;;17.75;6.25;;;;;;;;;;5056708;28;20652;-81
2023/12/16 02:18:18;;;;;;;12.23;5.38;;;;;;;;;;5056944;28;20178;-80
2023/12/16 02:20:46;;;;;;;19.23;5.77;;;;;;;;;;5056991;28;20182;-81
2023/12/16 02:23:15;;;;;;;17.50;7.05;;;;;;;;;;5055338;28;20395;-80
2023/12/16 02:25:42;;;;;;;16.92;6.63;;;;;;;;;;5056501;28;20170;-80
2023/12/16 02:28:08;;;;;;;19.50;6.47;;;;;;;;;;5056298;28;20175;-80
2023/12/16 02:30:34;;;;;;;11.95;5.93;;;;;;;;;;5056045;28;20171;-81
2023/12/16 02:33:00;;;;;;;15.80;6.07;;;;;;;;;;5056520;28;20178;-81
2023/12/16 02:35:26;;;;;;;12.47;5.33;;;;;;;;;;5055967;28;20296;-80
2023/12/16 02:37:52;;;;;;;12.13;5.50;;;;;;;;;;5056472;28;20392;-80
2023/12/16 02:40:18;;;;;;;16.90;6.05;;;;;;;;;;5056234;28;20403;-80
2023/12/16 02:42:44;;;;;;;17.58;5.60;;;;;;;;;;5054346;28;20183;-81
2023/12/16 02:45:10;;;;;;;9.70;4.40;;;;;;;;;;5056284;28;20185;-80
2023/12/16 02:47:36;;;;;;;11.53;4.83;;;;;;;;;;5056572;28;20430;-81
2023/12/16 02:50:03;;;;;;;14.33;5.57;;;;;;;;;;5056232;28;20734;-80
2023/12/16 02:52:30;;;;;;;10.60;5.30;;;;;;;;;;5055576;28;20516;-80
2023/12/16 02:54:56;;;;;;;13.95;4.60;;;;;;;;;;5055684;28;20209;-80
2023/12/16 02:57:22;;;;;;;10.90;5.47;;;;;;;;;;5056267;28;20653;-80
2023/12/16 02:59:48;;;;;;;12.93;4.97;;;;;;;;;;5056193;28;20404;-80
2023/12/16 03:02:14;;;;;;;7.13;4.33;;;;;;;;;;5056499;28;20178;-80
2023/12/16 03:04:40;;;;;;;20.10;5.67;;;;;;;;;;5055912;28;20397;-80
2023/12/16 03:07:06;;;;;;;10.48;5.00;;;;;;;;;;5055690;28;20728;-80
2023/12/16 03:09:32;;;;;;;10.60;4.70;;;;;;;;;;5056169;28;20258;-80
2023/12/16 03:12:00;;;;;;;10.43;4.53;;;;;;;;;;5055601;28;20876;-80
2023/12/16 03:14:26;;;;;;;11.23;4.82;;;;;;;;;;5055610;28;20462;-81
2023/12/16 03:16:52;;;;;;;10.07;5.33;;;;;;;;;;5054414;28;20270;-80
2023/12/16 03:19:18;;;;;;;8.13;4.33;;;;;;;;;;5054877;28;20408;-80
2023/12/16 03:21:44;;;;;;;17.33;5.57;;;;;;;;;;5055769;28;20415;-80
2023/12/16 03:24:10;;;;;;;10.80;5.30;;;;;;;;;;5055854;28;20827;-80
2023/12/16 03:26:36;;;;;;;10.33;4.33;;;;;;;;;;5056139;28;20435;-81
2023/12/16 03:29:02;;;;;;;18.13;5.25;;;;;;;;;;5055743;28;20408;-80
2023/12/16 03:31:28;;;;;;;13.25;4.70;;;;;;;;;;5056133;28;20166;-80
2023/12/16 03:33:54;;;;;;;12.90;4.60;;;;;;;;;;5055699;28;20556;-80
2023/12/16 03:36:20;;;;;;;12.67;4.77;;;;;;;;;;5055904;28;20891;-80
2023/12/16 03:38:46;;;;;;;19.65;6.00;;;;;;;;;;5055882;28;20396;-80
2023/12/16 03:41:15;;;;;;;14.43;5.80;;;;;;;;;;5056337;28;20173;-80
2023/12/16 03:43:41;;;;;;;12.77;5.03;;;;;;;;;;5055478;28;20785;-80
2023/12/16 03:46:10;;;;;;;8.03;4.53;;;;;;;;;;5056326;28;20264;-80
2023/12/16 03:48:36;;;;;;;16.40;5.95;;;;;;;;;;5055478;28;20416;-81
2023/12/16 03:51:02;;;;;;;10.23;4.30;;;;;;;;;;5055810;28;20180;-80
2023/12/16 03:53:28;;;;;;;10.80;4.83;;;;;;;;;;5055813;28;20233;-80
2023/12/16 03:55:54;;;;;;;13.40;4.47;;;;;;;;;;5055026;28;20513;-80
2023/12/16 03:58:20;;;;;;;16.48;5.28;;;;;;;;;;5055652;28;20488;-80
2023/12/16 04:00:46;;;;;;;15.82;4.15;;;;;;;;;;5055622;28;20186;-80
2023/12/16 04:03:12;;;;;;;10.27;4.20;;;;;;;;;;5055853;28;20588;-80
2023/12/16 04:05:38;;;;;;;9.20;4.47;;;;;;;;;;5058152;28;20403;-80
2023/12/16 04:08:04;;;;;;;8.53;3.93;;;;;;;;;;5059486;28;20480;-80
2023/12/16 04:10:30;;;;;;;8.50;4.10;;;;;;;;;;5058144;28;20398;-80
2023/12/16 04:12:56;;;;;;;7.00;3.60;;;;;;;;;;5059292;28;20393;-79
2023/12/16 04:15:22;;;;;;;9.40;3.80;;;;;;;;;;5059321;28;20696;-80
2023/12/16 04:17:48;;;;;;;6.50;3.57;;;;;;;;;;5058840;28;20404;-80
2023/12/16 04:20:14;;;;;;;10.07;4.18;;;;;;;;;;5059107;28;20499;-80
2023/12/16 04:22:40;;;;;;;10.20;4.35;;;;;;;;;;5058758;28;20170;-80
2023/12/16 04:25:10;;;;;;;8.27;3.40;;;;;;;;;;5058611;28;20648;-80
2023/12/16 04:27:36;;;;;;;14.13;4.03;;;;;;;;;;5059072;28;20495;-80
2023/12/16 04:30:03;;;;;;;13.48;4.32;;;;;;;;;;5057795;28;20650;-80
2023/12/16 04:32:29;;;;;;;9.43;4.30;;;;;;;;;;5058873;28;20174;-80
2023/12/16 04:34:55;;;;;;;9.30;3.55;;;;;;;;;;5058567;28;20219;-80
2023/12/16 04:37:21;;;;;;;9.82;3.42;;;;;;;;;;5058448;28;20254;-80
2023/12/16 04:39:47;;;;;;;8.43;4.00;;;;;;;;;;5058053;28;20646;-80
2023/12/16 04:42:13;;;;;;;12.30;3.20;;;;;;;;;;5058826;28;20435;-80
2023/12/16 04:44:39;;;;;;;10.18;3.70;;;;;;;;;;5058380;28;20407;-81
2023/12/16 04:47:05;;;;;;;7.30;3.90;;;;;;;;;;5058542;28;20173;-80
2023/12/16 04:49:31;;;;;;;10.43;3.50;;;;;;;;;;5058915;28;20403;-80
2023/12/16 04:51:57;;;;;;;7.40;3.47;;;;;;;;;;5058020;28;20169;-80
2023/12/16 04:54:23;;;;;;;9.83;3.30;;;;;;;;;;5058386;28;20408;-80
2023/12/16 04:56:50;;;;;;;11.45;3.83;;;;;;;;;;5058310;28;20470;-80
2023/12/16 04:59:16;;;;;;;12.65;3.10;;;;;;;;;;5058744;28;20177;-80
2023/12/16 05:01:42;;;;;;;8.40;4.10;;;;;;;;;;5058337;28;20182;-80
2023/12/16 05:04:08;;;;;;;9.65;3.03;;;;;;;;;;5058246;28;20901;-80
2023/12/16 05:06:34;;;;;;;11.97;3.30;;;;;;;;;;5058048;28;20183;-80
2023/12/16 05:09:00;;;;;;;7.17;2.70;;;;;;;;;;5058090;28;20502;-80
2023/12/16 05:11:26;;;;;;;10.63;2.70;;;;;;;;;;5058509;28;20732;-80
2023/12/16 05:13:52;;;;;;;6.40;3.57;;;;;;;;;;5058113;28;20174;-80
2023/12/16 05:16:19;;;;;;;7.35;3.25;;;;;;;;;;5057276;28;20546;-80
2023/12/16 05:18:45;;;;;;;9.95;3.90;;;;;;;;;;5058025;28;20206;-80
2023/12/16 05:21:11;;;;;;;7.77;2.63;;;;;;;;;;5057883;28;20166;-80
2023/12/16 05:23:38;;;;;;;8.90;3.00;;;;;;;;;;5058518;28;20436;-80
2023/12/16 05:26:04;;;;;;;10.05;3.63;;;;;;;;;;5057732;28;20210;-80
2023/12/16 05:28:32;;;;;;;8.20;3.55;;;;;;;;;;5057693;28;20199;-80
2023/12/16 05:30:58;;;;;;;8.32;3.30;;;;;;;;;;5057612;28;20199;-80
2023/12/16 05:33:24;;;;;;;7.10;2.83;;;;;;;;;;5058009;28;20240;-80
2023/12/16 05:35:50;;;;;;;6.40;2.50;;;;;;;;;;5057487;28;20470;-81
2023/12/16 05:38:16;;;;;;;8.40;2.57;;;;;;;;;;5057806;28;20400;-80
2023/12/16 05:40:42;;;;;;;6.60;2.40;;;;;;;;;;5057011;28;20451;-82
2023/12/16 05:43:08;;;;;;;7.80;2.60;;;;;;;;;;5057715;28;20395;-80
2023/12/16 05:45:34;;;;;;;6.85;2.17;;;;;;;;;;5057968;28;20407;-80
2023/12/16 05:48:00;;;;;;;5.88;2.25;;;;;;;;;;5057615;28;20526;-80
2023/12/16 05:50:26;;;;;;;7.23;3.30;;;;;;;;;;5057556;28;20183;-81
2023/12/16 05:52:52;;;;;;;5.77;2.67;;;;;;;;;;5056215;28;20470;-80
2023/12/16 05:55:18;;;;;;;12.57;3.03;;;;;;;;;;5057502;28;20812;-80
2023/12/16 05:57:44;;;;;;;9.43;3.57;;;;;;;;;;5057780;28;20395;-80
2023/12/16 06:00:10;;;;;;;12.33;2.90;;;;;;;;;;5057577;28;20492;-80
2023/12/16 06:02:36;;;;;;;6.50;2.50;;;;;;;;;;5058165;28;20403;-80
2023/12/16 06:05:03;;;;;;;6.60;2.93;;;;;;;;;;5057196;28;20191;-81
2023/12/16 06:07:29;;;;;;;5.65;2.92;;;;;;;;;;5057333;28;20400;-80
2023/12/16 06:09:55;;;;;;;6.73;2.83;;;;;;;;;;5057296;28;20176;-80
2023/12/16 06:12:21;;;;;;;6.03;2.80;;;;;;;;;;5057433;28;20474;-80
2023/12/16 06:14:47;;;;;;;8.50;3.00;;;;;;;;;;5056889;28;20169;-81
2023/12/16 06:17:13;;;;;;;8.03;3.10;;;;;;;;;;5057035;28;20498;-80
2023/12/16 06:19:39;;;;;;;3.65;2.47;;;;;;;;;;5056614;28;20934;-80
2023/12/16 06:22:05;;;;;;;10.70;3.17;;;;;;;;;;5057201;28;20173;-80
2023/12/16 06:24:31;;;;;;;5.68;2.70;;;;;;;;;;5056888;28;20458;-81
2023/12/16 06:26:57;;;;;;;6.20;3.00;;;;;;;;;;5056821;28;20188;-80
2023/12/16 06:29:23;;;;;;;9.33;3.30;;;;;;;;;;5057309;28;20411;-80
2023/12/16 06:31:49;;;;;;;9.43;3.00;;;;;;;;;;5056164;28;20453;-81
2023/12/16 06:34:16;;;;;;;7.17;3.03;;;;;;;;;;5057327;28;20260;-81
2023/12/16 06:36:42;;;;;;;5.55;3.33;;;;;;;;;;5056741;28;20467;-80
2023/12/16 06:39:08;;;;;;;10.50;3.60;;;;;;;;;;5056797;28;20183;-80
2023/12/16 06:41:34;;;;;;;7.63;2.80;;;;;;;;;;5057208;28;20176;-80
2023/12/16 06:44:00;;;;;;;12.53;3.23;;;;;;;;;;5056868;28;20930;-80
2023/12/16 06:46:26;;;;;;;7.10;3.03;;;;;;;;;;5056703;28;20725;-80
2023/12/16 06:48:52;;;;;;;11.10;3.13;;;;;;;;;;5057203;28;20407;-80
2023/12/16 06:51:18;;;;;;;5.55;2.53;;;;;;;;;;5057151;28;20408;-80
2023/12/16 06:53:44;;;;;;;10.47;4.23;;;;;;;;;;5057216;28;20305;-80
2023/12/16 06:56:11;;;;;;;12.73;4.13;;;;;;;;;;5057142;28;20527;-80
2023/12/16 06:58:38;;;;;;;9.40;3.95;;;;;;;;;;5056913;28;20173;-80
2023/12/16 07:01:04;;;;;;;8.40;3.60;;;;;;;;;;5056685;28;20223;-80
2023/12/16 07:03:30;;;;;;;9.27;3.70;;;;;;;;;;5056708;28;20169;-80
2023/12/16 07:05:56;;;;;;;10.30;3.60;;;;;;;;;;5056801;28;20645;-80
2023/12/16 07:08:22;;;;;;;12.30;3.00;;;;;;;;;;5057185;28;20575;-79
2023/12/16 07:10:48;;;;;;;16.17;5.33;;;;;;;;;;5056937;28;20177;-81
2023/12/16 07:13:14;;;;;;;8.82;2.95;;;;;;;;;;5056647;28;20408;-79
2023/12/16 07:15:40;;;;;;;6.20;2.50;;;;;;;;;;5056707;28;20212;-80
2023/12/16 07:18:06;;;;;;;10.10;3.13;;;;;;;;;;5056185;28;20443;-79
2023/12/16 07:20:32;;;;;;;6.20;2.40;;;;;;;;;;5056762;28;20804;-80
2023/12/16 07:22:58;;;;;;;11.02;3.50;;;;;;;;;;5056250;28;20223;-79
2023/12/16 07:25:24;;;;;;;5.10;2.80;;;;;;;;;;5056525;28;20177;-79
2023/12/16 07:27:50;;;;;;;13.27;4.40;;;;;;;;;;5056184;28;20400;-80
2023/12/16 07:30:16;;;;;;;9.35;3.10;;;;;;;;;;5056448;28;20415;-79
2023/12/16 07:32:42;;;;;;;8.85;2.72;;;;;;;;;;5061110;28;20177;-80
2023/12/16 07:35:12;;;;;;;11.20;3.42;;;;;;;;;;5058223;28;20226;-80
2023/12/16 07:37:40;;;;;;;6.95;2.70;;;;;;;;;;5056090;28;20568;-79
2023/12/16 07:40:07;;;;;;;10.85;2.90;;;;;;;;;;5058003;28;20167;-80
2023/12/16 07:42:33;;;;;;;16.50;3.22;;;;;;;;;;5060408;28;20191;-79
2023/12/16 07:44:59;;;;;;;5.00;2.43;;;;;;;;;;5059684;28;20199;-80
2023/12/16 07:47:25;;;;;;;9.40;3.10;;;;;;;;;;5060069;28;20400;-80
2023/12/16 07:49:51;;;;;;;5.97;2.40;;;;;;;;;;5059487;28;20399;-80
2023/12/16 07:52:17;;;;;;;11.90;3.93;;;;;;;;;;5060114;28;20447;-80
2023/12/16 07:54:42;;;;;;;7.93;3.63;;;;;;;;;;5060429;28;20400;-79
2023/12/16 07:57:08;;;;;;;7.63;3.33;;;;;;;;;;5059594;28;20422;-80
2023/12/16 07:59:34;;;;;;;5.33;2.60;;;;;;;;;;5060412;28;20396;-79
2023/12/16 08:02:05;;;;;;;6.13;3.07;;;;;;;;;;5059247;28;20737;-80
2023/12/16 08:04:31;;;;;;;8.50;2.45;;;;;;;;;;5059979;28;20440;-79
2023/12/16 08:06:57;;;;;;;7.53;2.73;;;;;;;;;;5059213;28;20201;-80
2023/12/16 08:09:23;;;;;;;7.40;3.20;;;;;;;;;;5060133;28;20396;-80
2023/12/16 08:11:49;;;;;;;13.67;5.00;;;;;;;;;;5059478;28;20396;-80
2023/12/16 08:14:14;;;;;;;5.63;3.17;;;;;;;;;;5060135;28;20388;-80
2023/12/16 08:16:41;;;;;;;10.10;4.27;;;;;;;;;;5059624;28;20572;-79
2023/12/16 08:19:07;;;;;;;6.88;2.97;;;;;;;;;;5059652;28;20494;-79
2023/12/16 08:21:33;;;;;;;8.57;3.70;;;;;;;;;;5060150;28;20571;-79
2023/12/16 08:23:58;;;;;;;6.60;2.90;;;;;;;;;;5059216;28;20432;-80
2023/12/16 08:26:27;;;;;;;7.30;2.93;;;;;;;;;;5059977;28;20178;-80
2023/12/16 08:28:52;;;;;;;13.98;4.45;;;;;;;;;;5058857;28;20744;-80
2023/12/16 08:31:18;;;;;;;7.20;2.77;;;;;;;;;;5059382;28;20184;-79
2023/12/16 08:33:44;;;;;;;11.30;3.30;;;;;;;;;;5059496;28;20754;-79
2023/12/16 08:36:10;;;;;;;10.67;3.00;;;;;;;;;;5059354;28;20537;-80
2023/12/16 08:38:38;;;;;;;13.82;3.13;;;;;;;;;;5059621;28;20402;-80
2023/12/16 08:41:07;;;;;;;10.05;4.35;;;;;;;;;;5059100;28;20264;-80
2023/12/16 08:43:33;;;;;;;8.75;3.22;;;;;;;;;;5058569;28;20185;-80
2023/12/16 08:45:59;;;;;;;9.77;4.03;;;;;;;;;;5059203;28;20611;-80
2023/12/16 08:48:25;;;;;;;8.70;2.73;;;;;;;;;;5059280;28;20455;-79
2023/12/16 08:50:51;;;;;;;10.77;2.83;;;;;;;;;;5057633;28;20404;-79
2023/12/16 08:53:16;;;;;;;12.50;3.42;;;;;;;;;;5058879;28;20541;-79
2023/12/16 08:55:42;;;;;;;6.80;3.43;;;;;;;;;;5059440;28;20214;-79
2023/12/16 08:58:09;;;;;;;8.75;2.45;;;;;;;;;;5059063;28;20415;-80
2023/12/16 09:00:35;;;;;;;7.50;3.58;;;;;;;;;;5059438;28;20177;-80
2023/12/16 09:03:01;;;;;;;12.57;3.70;;;;;;;;;;5057416;28;20232;-80
2023/12/16 09:05:28;;;;;;;11.30;3.60;;;;;;;;;;5059150;28;20181;-79
2023/12/16 09:07:54;;;;;;;7.90;2.70;;;;;;;;;;5058750;28;20169;-85
2023/12/16 09:10:20;;;;;;;11.80;2.75;;;;;;;;;;5059203;28;20278;-79
2023/12/16 09:12:47;;;;;;;20.48;4.65;;;;;;;;;;5058202;28;20525;-81
2023/12/16 09:15:15;;;;;;;13.18;2.40;;;;;;;;;;5057855;28;20735;-81
2023/12/16 09:17:41;;;;;;;6.90;2.80;;;;;;;;;;5058059;28;20199;-81
2023/12/16 09:20:07;;;;;;;10.00;3.33;;;;;;;;;;5057454;28;20173;-81
2023/12/16 09:22:33;;;;;;;9.23;3.45;;;;;;;;;;5057840;28;20438;-81
2023/12/16 09:25:01;;;;;;;7.73;2.70;;;;;;;;;;5056949;28;20506;-81
2023/12/16 09:27:27;;;;;;;10.40;3.05;;;;;;;;;;5058085;28;20408;-80
2023/12/16 09:29:53;;;;;;;10.45;2.90;;;;;;;;;;5057452;28;20199;-80
2023/12/16 09:32:19;;;;;;;4.77;2.70;;;;;;;;;;5056354;28;20173;-80
2023/12/16 09:34:45;;;;;;;17.67;4.07;;;;;;;;;;5057334;28;20750;-80
2023/12/16 09:37:12;;;;;;;12.10;3.42;;;;;;;;;;5057543;28;20686;-80
2023/12/16 09:39:39;;;;;;;7.60;2.38;;;;;;;;;;5057167;28;20260;-81
2023/12/16 09:42:05;;;;;;;8.50;2.47;;;;;;;;;;5057180;28;20197;-80
2023/12/16 09:44:36;;;;;;;12.73;3.63;;;;;;;;;;5057477;28;20177;-80
2023/12/16 09:47:03;;;;;;;5.22;2.17;;;;;;;;;;5057500;28;20705;-81
2023/12/16 09:49:30;;;;;;;7.43;2.50;;;;;;;;;;5057744;28;20180;-80
2023/12/16 09:51:56;;;;;;;8.30;3.58;;;;;;;;;;5057000;28;20669;-80
2023/12/16 09:54:22;;;;;;;5.63;2.23;;;;;;;;;;5057215;28;20659;-80
2023/12/16 09:56:50;;;;;;;7.60;2.55;;;;;;;;;;5056799;28;20940;-80
2023/12/16 09:59:21;;;;;;;6.05;2.15;;;;;;;;;;5057582;28;20185;-80
2023/12/16 10:01:51;;;;;;;10.85;2.92;;;;;;;;;;5057173;28;20192;-80
2023/12/16 10:04:17;;;;;;;9.98;4.10;;;;;;;;;;5056699;28;20206;-80
2023/12/16 10:06:43;;;;;;;10.75;3.33;;;;;;;;;;5057372;28;20183;-80
2023/12/16 10:09:09;;;;;;;8.00;3.83;;;;;;;;;;5057349;28;20517;-80
2023/12/16 10:11:41;;;;;;;11.90;3.70;;;;;;;;;;5063554;28;20222;-80
2023/12/16 10:14:07;;;;;;;11.18;4.05;;;;;;;;;;5063477;28;20446;-81
2023/12/16 10:16:34;;;;;;;12.57;4.07;;;;;;;;;;5061533;28;20551;-80
2023/12/16 10:19:00;;;;;;;10.98;2.80;;;;;;;;;;5072007;28;20176;-81
2023/12/16 10:21:27;;;;;;;12.23;4.70;;;;;;;;;;5074237;28;20188;-80
2023/12/16 10:23:53;;;;;;;13.98;3.35;;;;;;;;;;5056921;28;20660;-80
2023/12/16 10:26:19;;;;;;;6.88;3.25;;;;;;;;;;5056877;28;20211;-80
2023/12/16 10:28:49;;;;;;;8.07;2.58;;;;;;;;;;5056996;28;20173;-80
2023/12/16 10:31:15;;;;;;;11.15;2.47;;;;;;;;;;5056582;28;20173;-80
2023/12/16 10:33:42;;;;;;;10.18;2.70;;;;;;;;;;5061099;28;20253;-79
2023/12/16 10:36:08;;;;;;;5.00;2.70;;;;;;;;;;5056333;28;20197;-80
2023/12/16 10:38:34;;;;;;;10.93;3.13;;;;;;;;;;5056846;28;20609;-80
2023/12/16 10:41:00;;;;;;;8.43;2.45;;;;;;;;;;5057043;28;20176;-84
2023/12/16 10:43:26;;;;;;;8.20;2.65;;;;;;;;;;5056547;28;20170;-80
2023/12/16 10:45:54;;;;;;;6.83;2.13;;;;;;;;;;5055017;28;20197;-80
2023/12/16 10:48:21;;;;;;;7.55;2.65;;;;;;;;;;5056511;28;20487;-80
2023/12/16 10:50:47;;;;;;;7.82;2.55;;;;;;;;;;5056765;28;20260;-80
2023/12/16 10:53:27;;;;;;;4.97;2.30;;;;;;;;;;5055735;28;20229;-80
2023/12/16 10:55:54;;;;;;;8.93;2.80;;;;;;;;;;5051004;28;20583;-82
2023/12/16 10:58:26;;;;;;;8.43;2.50;;;;;;;;;;5055172;28;20596;-79
2023/12/16 11:00:52;;;;;;;12.73;2.72;;;;;;;;;;5055514;28;20637;-80
2023/12/16 11:03:25;;;;;;;16.02;3.13;;;;;;;;;;5054226;28;20176;-80
2023/12/16 11:05:52;;;;;;;14.93;3.05;;;;;;;;;;5055672;28;20177;-80
2023/12/16 11:08:18;;;;;;;13.20;2.85;;;;;;;;;;5055063;28;20625;-80
2023/12/16 11:10:44;;;;;;;9.02;3.33;;;;;;;;;;5054347;28;20183;-80
2023/12/16 11:13:11;;;;;;;6.85;2.55;;;;;;;;;;5054936;28;20169;-80
2023/12/16 11:15:38;;;;;;;7.28;2.65;;;;;;;;;;5055035;28;20212;-80
2023/12/16 11:18:26;;;;;;;10.73;3.42;;;;;;;;;;5054553;28;20182;-80
2023/12/16 11:20:54;;;;;;;11.02;2.40;;;;;;;;;;5055159;28;20177;-80
2023/12/16 11:23:21;;;;;;;12.50;2.90;;;;;;;;;;5055326;28;20181;-79
2023/12/16 11:25:49;;;;;;;10.45;3.00;;;;;;;;;;5054181;28;20173;-79
2023/12/16 11:28:15;;;;;;;7.35;3.17;;;;;;;;;;5055165;28;20537;-80
2023/12/16 11:30:41;;;;;;;6.97;2.92;;;;;;;;;;5053880;28;20244;-80
2023/12/16 11:33:07;;;;;;;15.48;2.83;;;;;;;;;;5055380;28;20177;-81
2023/12/16 11:35:39;;;;;;;8.50;3.20;;;;;;;;;;5053560;28;20208;-80
2023/12/16 11:38:06;;;;;;;9.43;2.70;;;;;;;;;;5064915;28;20583;-80
2023/12/16 11:40:48;;;;;;;10.55;2.72;;;;;;;;;;5069251;28;20546;-80
2023/12/16 11:43:14;;;;;;;7.65;2.97;;;;;;;;;;5054820;28;20189;-80
2023/12/16 11:45:41;;;;;;;6.13;2.27;;;;;;;;;;5052490;28;20186;-80
2023/12/16 11:48:08;;;;;;;10.98;2.60;;;;;;;;;;5053989;28;20451;-80
2023/12/16 11:50:34;;;;;;;10.13;2.60;;;;;;;;;;5054734;28;20209;-80
2023/12/16 11:53:01;;;;;;;16.17;4.13;;;;;;;;;;5054205;28;20236;-80
2023/12/16 11:55:27;;;;;;;17.55;3.47;;;;;;;;;;5054029;28;20257;-81
2023/12/16 11:57:53;;;;;;;10.83;3.03;;;;;;;;;;5054433;28;20181;-81
2023/12/16 12:00:20;;;;;;;10.07;2.87;;;;;;;;;;5055014;28;20403;-81
2023/12/16 12:02:48;;;;;;;25.00;3.78;;;;;;;;;;5054791;28;20414;-81
2023/12/16 12:05:14;;;;;;;12.18;2.60;;;;;;;;;;5053403;28;20187;-81
2023/12/16 12:07:40;;;;;;;14.60;2.90;;;;;;;;;;5054890;28;20617;-81
2023/12/16 12:10:06;;;;;;;5.63;2.60;;;;;;;;;;5054296;28;20478;-82
2023/12/16 12:12:32;;;;;;;6.60;3.03;;;;;;;;;;5054748;28;20423;-81
2023/12/16 12:14:58;;;;;;;10.97;2.73;;;;;;;;;;5054626;28;20182;-81
2023/12/16 12:17:26;;;;;;;10.50;2.23;;;;;;;;;;5052766;28;20444;-81
2023/12/16 12:19:52;;;;;;;9.90;2.00;;;;;;;;;;5054525;28;20404;-80
2023/12/16 12:22:20;;;;;;;12.32;3.80;;;;;;;;;;5054323;28;20219;-80
2023/12/16 12:24:46;;;;;;;12.20;2.13;;;;;;;;;;5054582;28;20175;-81
2023/12/16 12:27:12;;;;;;;10.00;2.97;;;;;;;;;;5057989;28;20614;-81
2023/12/16 12:29:56;;;;;;;16.30;3.90;;;;;;;;;;5058143;28;20408;-81
2023/12/16 12:32:26;;;;;;;11.45;2.97;;;;;;;;;;5057906;28;20403;-81
2023/12/16 12:35:05;;;;;;;12.05;3.55;;;;;;;;;;5057918;28;20174;-81
2023/12/16 12:37:41;;;;;;;15.93;3.40;;;;;;;;;;5057632;28;20173;-81
2023/12/16 12:40:13;;;;;;;10.48;3.88;;;;;;;;;;5057925;28;20267;-86
2023/12/16 12:42:48;;;;;;;12.25;5.05;;;;;;;;;;5057403;28;20205;-81
2023/12/16 12:45:24;;;;;;;14.52;3.50;;;;;;;;;;5057823;28;20215;-82
2023/12/16 12:47:50;;;;;;;15.30;3.05;;;;;;;;;;5058055;28;20180;-81
2023/12/16 12:50:23;;;;;;;11.23;3.50;;;;;;;;;;5057603;28;20185;-81
2023/12/16 12:52:49;;;;;;;12.73;3.05;;;;;;;;;;5057069;28;20701;-81
2023/12/16 12:55:18;;;;;;;16.20;3.45;;;;;;;;;;5057852;28;20201;-81
2023/12/16 12:57:45;;;;;;;11.23;2.28;;;;;;;;;;5057244;28;20232;-81
2023/12/16 13:00:11;;;;;;;15.60;2.53;;;;;;;;;;5057636;28;20268;-81
2023/12/16 13:02:37;;;;;;;9.85;3.25;;;;;;;;;;5057629;28;20501;-81
2023/12/16 13:05:03;;;;;;;8.85;2.70;;;;;;;;;;5056323;28;20664;-81
2023/12/16 13:07:29;;;;;;;16.70;2.40;;;;;;;;;;5057270;28;20259;-81
2023/12/16 13:09:55;;;;;;;6.63;2.60;;;;;;;;;;5057116;28;20165;-81
2023/12/16 13:12:21;;;;;;;9.33;2.50;;;;;;;;;;5057512;28;20613;-81
2023/12/16 13:14:47;;;;;;;10.57;2.67;;;;;;;;;;5057501;28;20423;-81
2023/12/16 13:17:13;;;;;;;11.00;2.80;;;;;;;;;;5057048;28;20534;-81
2023/12/16 13:19:40;;;;;;;9.18;2.60;;;;;;;;;;5057580;28;20463;-81
2023/12/16 13:22:06;;;;;;;16.55;3.30;;;;;;;;;;5057211;28;20173;-81
2023/12/16 13:24:32;;;;;;;11.25;2.38;;;;;;;;;;5056795;28;20264;-81
2023/12/16 13:26:59;;;;;;;14.93;3.50;;;;;;;;;;5057025;28;20673;-81
2023/12/16 13:29:25;;;;;;;21.50;3.47;;;;;;;;;;5057111;28;20182;-81
2023/12/16 13:31:51;;;;;;;15.73;3.63;;;;;;;;;;5055872;28;20233;-81
2023/12/16 13:34:17;;;;;;;11.73;2.60;;;;;;;;;;5057147;28;20177;-81
2023/12/16 13:36:43;;;;;;;10.73;3.10;;;;;;;;;;5056401;28;20463;-81
2023/12/16 13:39:09;;;;;;;7.10;2.60;;;;;;;;;;5057084;28;20491;-80
2023/12/16 13:41:35;;;;;;;8.37;2.40;;;;;;;;;;5056611;28;20208;-81
2023/12/16 13:44:01;;;;;;;10.85;2.75;;;;;;;;;;5055617;28;20403;-81
2023/12/16 13:46:27;;;;;;;15.25;2.90;;;;;;;;;;5056344;28;20525;-81
2023/12/16 13:48:53;;;;;;;17.42;3.17;;;;;;;;;;5056308;28;20185;-81
2023/12/16 13:51:19;;;;;;;17.30;3.63;;;;;;;;;;5056407;28;20177;-81
2023/12/16 13:53:45;;;;;;;9.27;2.50;;;;;;;;;;5056757;28;20510;-81
2023/12/16 13:56:11;;;;;;;9.02;2.88;;;;;;;;;;5056298;28;20817;-81
2023/12/16 13:58:37;;;;;;;8.50;2.30;;;;;;;;;;5056440;28;20185;-81
2023/12/16 14:01:03;;;;;;;11.27;3.17;;;;;;;;;;5056694;28;20181;-81
2023/12/16 14:03:29;;;;;;;7.60;2.60;;;;;;;;;;5056426;28;20453;-81
2023/12/16 14:05:55;;;;;;;9.60;3.47;;;;;;;;;;5056495;28;20601;-81
2023/12/16 14:08:21;;;;;;;15.83;3.50;;;;;;;;;;5056628;28;20408;-81
2023/12/16 14:10:47;;;;;;;10.37;2.93;;;;;;;;;;5056584;28;20408;-81
2023/12/16 14:13:13;;;;;;;5.10;2.10;;;;;;;;;;5055872;28;20407;-81
2023/12/16 14:15:39;;;;;;;8.52;2.47;;;;;;;;;;5056204;28;20311;-80
2023/12/16 14:18:05;;;;;;;7.20;2.43;;;;;;;;;;5056444;28;20621;-80
2023/12/16 14:20:31;;;;;;;19.80;2.70;;;;;;;;;;5055118;28;20417;-81
2023/12/16 14:22:57;;;;;;;9.93;2.50;;;;;;;;;;5055530;28;20419;-81
2023/12/16 14:25:24;;;;;;;5.37;2.30;;;;;;;;;;5054960;28;20392;-81
2023/12/16 14:27:50;;;;;;;7.95;3.05;;;;;;;;;;5055725;28;20447;-81
2023/12/16 14:30:16;;;;;;;9.93;2.10;;;;;;;;;;5054507;28;20207;-81
2023/12/16 14:32:42;;;;;;;6.93;3.28;;;;;;;;;;5055366;28;20411;-81